Time;durP1;ratioP1;P1;durP2;ratioP2;P2;SDS_P1;SDS_P2;PMS_P1;PMS_P2;Temp;Humidity;BMP_temperature;BMP_pressure;BME280_temperature;BME280_humidity;BME280_pressure;Samples;Min_cycle;Max_cycle;Signal;HPM_P1;HPM_P2
2023/03/15 00:01:14;;;;;;;;;;;23.30;99.90;;;;;;5040690;28;19917;-68
2023/03/15 00:03:41;;;;;;;;;;;23.40;99.90;;;;;;5040622;28;19913;-69
2023/03/15 00:06:07;;;;;;;;;;;23.50;99.90;;;;;;5041059;28;19956;-69
2023/03/15 00:08:34;;;;;;;;;;;23.60;99.90;;;;;;5041608;28;19948;-70
2023/03/15 00:11:01;;;;;;;;;;;23.70;99.90;;;;;;5039962;28;20556;-70
2023/03/15 00:13:28;;;;;;;;;;;23.90;99.90;;;;;;5040240;28;20388;-68
2023/03/15 00:15:59;;;;;;;;;;;24.00;99.90;;;;;;5040171;28;19916;-69
2023/03/15 00:18:26;;;;;;;;;;;24.10;99.90;;;;;;5041209;28;19916;-68
2023/03/15 00:20:53;;;;;;;;;;;24.10;99.90;;;;;;5041058;28;19971;-68
2023/03/15 00:23:20;;;;;;;;;;;24.30;99.90;;;;;;5040898;28;19939;-67
2023/03/15 00:25:47;;;;;;;;;;;24.40;99.90;;;;;;5040559;28;19913;-69
2023/03/15 00:28:14;;;;;;;;;;;24.40;99.90;;;;;;5040552;28;19948;-68
2023/03/15 00:30:41;;;;;;;;;;;24.50;99.90;;;;;;5041459;28;19916;-67
2023/03/15 00:33:08;;;;;;;;;;;24.60;99.90;;;;;;5040510;28;19916;-68
2023/03/15 00:35:38;;;;;;;;;;;24.70;99.90;;;;;;5040742;28;20015;-68
2023/03/15 00:38:05;;;;;;;;;;;24.70;99.90;;;;;;5039726;28;19909;-68
2023/03/15 00:40:31;;;;;;;;;;;24.80;99.90;;;;;;5040637;28;19920;-67
2023/03/15 00:42:58;;;;;;;;;;;24.90;99.90;;;;;;5040548;28;19948;-67
2023/03/15 00:45:25;;;;;;;;;;;25.10;99.90;;;;;;5040332;28;19908;-67
2023/03/15 00:47:52;;;;;;;;;;;25.10;99.90;;;;;;5040640;28;19915;-68
2023/03/15 00:50:20;;;;;;;;;;;25.30;99.90;;;;;;5040301;28;20175;-68
2023/03/15 00:52:46;;;;;;;;;;;25.40;99.90;;;;;;5040970;28;20067;-68
2023/03/15 00:55:14;;;;;;;;;;;25.60;99.90;;;;;;5038636;28;19913;-67
2023/03/15 00:57:42;;;;;;;;;;;25.70;99.90;;;;;;5041074;28;20160;-68
2023/03/15 01:00:15;;;;;;;;;;;25.70;99.90;;;;;;5039791;28;19944;-67
2023/03/15 01:02:42;;;;;;;;;;;26.00;99.90;;;;;;5041110;28;19909;-68
2023/03/15 01:05:09;;;;;;;;;;;26.10;99.90;;;;;;5039440;28;19948;-68
2023/03/15 01:07:36;;;;;;;;;;;26.20;99.90;;;;;;5040905;28;20349;-69
2023/03/15 01:10:04;;;;;;;;;;;26.30;99.90;;;;;;5040180;28;19909;-69
2023/03/15 01:12:34;;;;;;;;;;;26.40;99.90;;;;;;5041061;28;19913;-68
2023/03/15 01:15:01;;;;;;;;;;;26.50;99.90;;;;;;5040201;28;20110;-72
2023/03/15 01:17:28;;;;;;;;;;;26.60;99.90;;;;;;5040381;28;19909;-68
2023/03/15 01:19:55;;;;;;;;;;;26.70;99.90;;;;;;5039995;28;20010;-68
2023/03/15 01:22:21;;;;;;;;;;;26.60;99.90;;;;;;5040161;28;19996;-67
2023/03/15 01:24:48;;;;;;;;;;;26.70;99.90;;;;;;5041809;28;19958;-69
2023/03/15 01:27:14;;;;;;;;;;;26.80;99.90;;;;;;5043007;28;19919;-68
2023/03/15 01:29:41;;;;;;;;;;;26.90;99.90;;;;;;5043989;28;19913;-68
2023/03/15 01:32:08;;;;;;;;;;;27.10;99.90;;;;;;5040693;28;20015;-69
2023/03/15 01:34:35;;;;;;;;;;;27.20;99.90;;;;;;5043297;28;19913;-71
2023/03/15 01:37:04;;;;;;;;;;;27.30;99.90;;;;;;5040764;28;19931;-68
2023/03/15 01:39:31;;;;;;;;;;;27.50;99.90;;;;;;5043543;28;19916;-71
2023/03/15 01:41:57;;;;;;;;;;;27.60;99.90;;;;;;5042922;28;20382;-68
2023/03/15 01:44:44;;;;;;;;;;;27.60;99.90;;;;;;5042319;28;20365;-68
2023/03/15 01:47:11;;;;;;;;;;;27.80;99.90;;;;;;5042256;28;19917;-68
2023/03/15 01:49:38;;;;;;;;;;;27.90;99.60;;;;;;5042449;28;20258;-66
2023/03/15 01:52:11;;;;;;;;;;;28.10;99.20;;;;;;5043294;28;19916;-66
2023/03/15 01:54:44;;;;;;;;;;;28.40;99.90;;;;;;5042115;28;20003;-67
2023/03/15 01:57:21;;;;;;;;;;;28.60;98.30;;;;;;5031589;28;20017;-68
2023/03/15 01:59:51;;;;;;;;;;;28.60;97.80;;;;;;5037188;28;19987;-70
2023/03/15 02:02:21;;;;;;;;;;;28.80;98.20;;;;;;5040908;28;19913;-68
2023/03/15 02:04:51;;;;;;;;;;;29.00;98.50;;;;;;5042371;28;19913;-69
2023/03/15 02:07:20;;;;;;;;;;;29.30;98.40;;;;;;5040917;28;19924;-72
2023/03/15 02:09:52;;;;;;;;;;;29.50;98.10;;;;;;5042313;28;20404;-69
2023/03/15 02:12:19;;;;;;;;;;;29.70;96.90;;;;;;5040182;28;20680;-68
2023/03/15 02:14:46;;;;;;;;;;;30.10;97.40;;;;;;5042254;28;19913;-70
2023/03/15 02:17:13;;;;;;;;;;;30.30;96.70;;;;;;5039276;28;19924;-69
2023/03/15 02:19:45;;;;;;;;;;;30.30;95.20;;;;;;5042179;28;19913;-66
2023/03/15 02:22:18;;;;;;;;;;;30.40;93.80;;;;;;5041717;28;19967;-72
2023/03/15 02:24:45;;;;;;;;;;;30.40;93.90;;;;;;5038579;28;20000;-68
2023/03/15 02:27:12;;;;;;;;;;;30.50;93.90;;;;;;5040217;28;20419;-68
2023/03/15 02:29:38;;;;;;;;;;;30.80;94.70;;;;;;5040605;28;19913;-69
2023/03/15 02:32:05;;;;;;;;;;;30.90;93.40;;;;;;5044109;28;19916;-74
2023/03/15 02:34:32;;;;;;;;;;;31.10;94.20;;;;;;5041113;28;19913;-69
2023/03/15 02:36:58;;;;;;;;;;;31.40;95.20;;;;;;5041643;28;19998;-69
2023/03/15 02:39:26;;;;;;;;;;;31.60;93.60;;;;;;5040947;28;19912;-72
2023/03/15 02:41:57;;;;;;;;;;;31.70;92.60;;;;;;5042715;28;20031;-69
2023/03/15 02:44:33;;;;;;;;;;;31.90;92.90;;;;;;5040285;28;19914;-69
2023/03/15 02:47:05;;;;;;;;;;;32.10;92.20;;;;;;5041727;28;19913;-68
2023/03/15 02:49:34;;;;;;;;;;;32.30;91.00;;;;;;5042365;28;19908;-69
2023/03/15 02:52:01;;;;;;;;;;;32.60;91.50;;;;;;5048160;28;20306;-71
2023/03/15 02:54:27;;;;;;;;;;;33.00;91.30;;;;;;5061205;28;19908;-69
2023/03/15 02:56:54;;;;;;;;;;;33.60;89.20;;;;;;5061178;28;20280;-72
2023/03/15 02:59:21;;;;;;;;;;;33.60;86.70;;;;;;5041118;28;19913;-70
2023/03/15 03:01:47;;;;;;;;;;;34.00;86.30;;;;;;5041631;28;19948;-78
2023/03/15 03:04:14;;;;;;;;;;;34.90;84.00;;;;;;5040815;28;20421;-68
2023/03/15 03:06:42;;;;;;;;;;;35.60;83.70;;;;;;5041048;28;19913;-69
2023/03/15 03:09:10;;;;;;;;;;;36.60;80.30;;;;;;5040253;28;20089;-69
2023/03/15 03:11:36;;;;;;;;;;;37.50;78.00;;;;;;5043124;28;19908;-68
2023/03/15 03:14:04;;;;;;;;;;;38.90;77.40;;;;;;5062063;28;19912;-67
2023/03/15 03:16:31;;;;;;;;;;;38.70;78.60;;;;;;5055495;28;19971;-71
2023/03/15 03:18:57;;;;;;;;;;;38.50;80.70;;;;;;5041354;28;19913;-68
2023/03/15 03:21:24;;;;;;;;;;;39.30;78.40;;;;;;5041430;28;19959;-68
2023/03/15 03:23:53;;;;;;;;;;;39.90;76.50;;;;;;5054599;28;20341;-68
2023/03/15 03:26:20;;;;;;;;;;;40.40;76.30;;;;;;5040551;28;19954;-73
2023/03/15 03:28:47;;;;;;;;;;;41.00;74.30;;;;;;5037061;28;20316;-71
2023/03/15 03:31:18;;;;;;;;;;;40.90;74.40;;;;;;5040596;28;20597;-68
2023/03/15 03:33:45;;;;;;;;;;;40.30;75.20;;;;;;5039809;28;20648;-69
2023/03/15 03:36:12;;;;;;;;;;;41.00;74.10;;;;;;5041206;28;19921;-71
2023/03/15 03:38:42;;;;;;;;;;;41.60;73.10;;;;;;5040733;28;19913;-68
2023/03/15 03:41:09;;;;;;;;;;;41.90;72.00;;;;;;5040867;28;19921;-67
2023/03/15 03:43:36;;;;;;;;;;;41.80;72.30;;;;;;5040286;28;19913;-67
2023/03/15 03:46:03;;;;;;;;;;;41.80;71.50;;;;;;5040030;28;19935;-68
2023/03/15 03:48:30;;;;;;;;;;;42.00;70.90;;;;;;5039394;28;19912;-69
2023/03/15 03:50:57;;;;;;;;;;;41.90;70.90;;;;;;5041164;28;19912;-70
2023/03/15 03:53:24;;;;;;;;;;;42.50;69.60;;;;;;5054618;28;19921;-70
2023/03/15 03:55:50;;;;;;;;;;;41.70;71.20;;;;;;5039708;28;19963;-69
2023/03/15 03:58:17;;;;;;;;;;;42.20;70.90;;;;;;5039914;28;19908;-68
2023/03/15 04:00:44;;;;;;;;;;;42.40;69.90;;;;;;5041181;28;19916;-72
2023/03/15 04:03:10;;;;;;;;;;;42.70;69.50;;;;;;5055767;28;19912;-68
2023/03/15 04:05:37;;;;;;;;;;;43.00;68.60;;;;;;5059795;28;19912;-68
2023/03/15 04:08:04;;;;;;;;;;;43.10;67.90;;;;;;5053236;28;20370;-68
2023/03/15 04:10:33;;;;;;;;;;;43.10;66.10;;;;;;5040785;28;19913;-69
2023/03/15 04:13:00;;;;;;;;;;;43.20;66.50;;;;;;5038965;28;19909;-70
2023/03/15 04:15:27;;;;;;;;;;;43.00;68.40;;;;;;5039371;28;20327;-68
2023/03/15 04:17:57;;;;;;;;;;;43.20;65.70;;;;;;5040138;28;19909;-69
2023/03/15 04:20:27;;;;;;;;;;;43.00;65.80;;;;;;5039380;28;19913;-69
2023/03/15 04:23:06;;;;;;;;;;;41.70;68.30;;;;;;5045601;28;20439;-76
2023/03/15 04:25:32;;;;;;;;;;;41.60;69.30;;;;;;5029121;28;20023;-77
2023/03/15 04:28:01;;;;;;;;;;;43.00;67.10;;;;;;5031169;28;19952;-68
2023/03/15 04:30:29;;;;;;;;;;;43.20;66.30;;;;;;5039038;28;20732;-67
2023/03/15 04:33:02;;;;;;;;;;;43.80;64.70;;;;;;5040764;28;19921;-68
2023/03/15 04:35:29;;;;;;;;;;;43.50;64.50;;;;;;5039929;28;20298;-73
2023/03/15 04:37:56;;;;;;;;;;;42.50;66.30;;;;;;5040331;28;19912;-70
2023/03/15 04:40:24;;;;;;;;;;;43.10;66.60;;;;;;5040071;28;19934;-69
2023/03/15 04:42:54;;;;;;;;;;;43.40;65.50;;;;;;5044606;28;19920;-66
2023/03/15 04:45:24;;;;;;;;;;;43.10;66.50;;;;;;5039502;28;19921;-74
2023/03/15 04:47:53;;;;;;;;;;;43.30;65.40;;;;;;5039749;28;19920;-69
2023/03/15 04:50:21;;;;;;;;;;;42.60;65.60;;;;;;5040550;28;20050;-68
2023/03/15 04:52:48;;;;;;;;;;;41.40;67.50;;;;;;5050524;28;19913;-79
2023/03/15 04:55:15;;;;;;;;;;;41.30;69.00;;;;;;5038040;28;19916;-70
2023/03/15 04:57:42;;;;;;;;;;;41.50;67.60;;;;;;5038111;28;19913;-70
2023/03/15 05:00:10;;;;;;;;;;;42.20;66.70;;;;;;5042065;28;19909;-68
2023/03/15 05:02:40;;;;;;;;;;;42.60;66.70;;;;;;5048606;28;19909;-68
2023/03/15 05:05:07;;;;;;;;;;;43.10;65.70;;;;;;5043669;28;19909;-70
2023/03/15 05:07:34;;;;;;;;;;;43.80;63.30;;;;;;5042067;28;20354;-72
2023/03/15 05:10:01;;;;;;;;;;;43.60;64.90;;;;;;5042866;28;20012;-70
2023/03/15 05:12:28;;;;;;;;;;;44.00;63.00;;;;;;5052185;28;19913;-71
2023/03/15 05:14:55;;;;;;;;;;;43.70;63.10;;;;;;5046190;28;19982;-71
2023/03/15 05:17:22;;;;;;;;;;;44.30;62.80;;;;;;5041257;28;19927;-71
2023/03/15 05:19:49;;;;;;;;;;;43.90;62.20;;;;;;5041308;28;19913;-68
2023/03/15 05:22:15;;;;;;;;;;;43.70;62.60;;;;;;5041477;28;20387;-77
2023/03/15 05:24:42;;;;;;;;;;;44.40;61.20;;;;;;5042723;28;19919;-72
2023/03/15 05:27:10;;;;;;;;;;;43.30;62.40;;;;;;5042601;28;19994;-71
2023/03/15 05:29:37;;;;;;;;;;;42.60;63.70;;;;;;5041988;28;20423;-70
2023/03/15 05:32:04;;;;;;;;;;;43.20;63.30;;;;;;5043931;28;19916;-71
2023/03/15 05:34:31;;;;;;;;;;;43.70;62.30;;;;;;5042877;28;19923;-69
2023/03/15 05:36:58;;;;;;;;;;;44.10;61.80;;;;;;5041124;28;20396;-68
2023/03/15 05:39:24;;;;;;;;;;;43.50;62.90;;;;;;5042453;28;19920;-68
2023/03/15 05:41:51;;;;;;;;;;;43.30;64.00;;;;;;5041101;28;20309;-69
2023/03/15 05:44:18;;;;;;;;;;;44.20;62.10;;;;;;5041632;28;19916;-66
2023/03/15 05:46:44;;;;;;;;;;;44.10;61.70;;;;;;5042184;28;19931;-72
2023/03/15 05:49:11;;;;;;;;;;;43.30;63.20;;;;;;5040670;28;19913;-74
2023/03/15 05:51:38;;;;;;;;;;;43.10;63.20;;;;;;5044446;28;19931;-72
2023/03/15 05:54:04;;;;;;;;;;;43.60;63.00;;;;;;5048124;28;20003;-72
2023/03/15 05:56:31;;;;;;;;;;;43.90;62.30;;;;;;5041142;28;19925;-68
2023/03/15 05:59:00;;;;;;;;;;;43.60;63.60;;;;;;5041176;28;20011;-68
2023/03/15 06:01:27;;;;;;;;;;;43.70;62.10;;;;;;5042969;28;20586;-66
2023/03/15 06:03:53;;;;;;;;;;;43.40;63.40;;;;;;5061846;28;19917;-68
2023/03/15 06:06:20;;;;;;;;;;;43.20;62.60;;;;;;5044153;28;19916;-68
2023/03/15 06:08:47;;;;;;;;;;;42.90;63.00;;;;;;5043056;28;20482;-70
2023/03/15 06:11:13;;;;;;;;;;;43.10;62.40;;;;;;5042064;28;19908;-66
2023/03/15 06:13:40;;;;;;;;;;;43.20;62.20;;;;;;5042567;28;20004;-68
2023/03/15 06:16:07;;;;;;;;;;;43.00;62.40;;;;;;5042581;28;19916;-71
2023/03/15 06:18:33;;;;;;;;;;;42.40;64.70;;;;;;5042460;28;19909;-67
2023/03/15 06:21:00;;;;;;;;;;;42.40;63.20;;;;;;5041778;28;19920;-67
2023/03/15 06:23:27;;;;;;;;;;;42.50;64.10;;;;;;5042506;28;19932;-70
2023/03/15 06:25:53;;;;;;;;;;;41.90;64.50;;;;;;5043374;28;20383;-69
2023/03/15 06:28:20;;;;;;;;;;;41.50;64.80;;;;;;5043599;28;20062;-72
2023/03/15 06:30:46;;;;;;;;;;;41.70;64.00;;;;;;5042421;28;20380;-74
2023/03/15 06:33:13;;;;;;;;;;;41.00;64.50;;;;;;5041478;28;19908;-67
2023/03/15 06:35:40;;;;;;;;;;;40.80;66.10;;;;;;5038882;28;20328;-68
2023/03/15 06:38:06;;;;;;;;;;;41.30;65.40;;;;;;5041133;28;19919;-68
2023/03/15 06:40:33;;;;;;;;;;;41.50;64.00;;;;;;5041252;28;19974;-68
2023/03/15 06:43:04;;;;;;;;;;;41.50;64.70;;;;;;5041295;28;19913;-70
2023/03/15 06:45:31;;;;;;;;;;;41.60;64.50;;;;;;5041501;28;19908;-71
2023/03/15 06:47:58;;;;;;;;;;;41.70;63.70;;;;;;5041962;28;19999;-69
2023/03/15 06:50:25;;;;;;;;;;;41.50;64.40;;;;;;5041318;28;19916;-68
2023/03/15 06:52:51;;;;;;;;;;;41.40;64.30;;;;;;5042086;28;19924;-67
2023/03/15 06:55:18;;;;;;;;;;;40.80;64.30;;;;;;5039988;28;20384;-68
2023/03/15 06:57:45;;;;;;;;;;;39.90;66.50;;;;;;5041223;28;19916;-68
2023/03/15 07:00:12;;;;;;;;;;;39.90;66.50;;;;;;5040742;28;19916;-68
2023/03/15 07:02:38;;;;;;;;;;;40.00;66.10;;;;;;5041771;28;20062;-68
2023/03/15 07:05:05;;;;;;;;;;;39.60;67.00;;;;;;5040329;28;20282;-68
2023/03/15 07:07:32;;;;;;;;;;;38.80;67.70;;;;;;5041250;28;20378;-69
2023/03/15 07:09:59;;;;;;;;;;;38.50;68.70;;;;;;5041395;28;19917;-68
2023/03/15 07:12:25;;;;;;;;;;;37.90;68.40;;;;;;5041360;28;19923;-72
2023/03/15 07:14:52;;;;;;;;;;;36.80;70.30;;;;;;5040999;28;19912;-68
2023/03/15 07:17:19;;;;;;;;;;;36.00;71.80;;;;;;5040756;28;19928;-69
2023/03/15 07:19:45;;;;;;;;;;;35.20;73.60;;;;;;5041704;28;19908;-69
2023/03/15 07:22:12;;;;;;;;;;;34.10;75.90;;;;;;5040383;28;19939;-68
2023/03/15 07:24:38;;;;;;;;;;;32.90;78.70;;;;;;5040991;28;19919;-69
2023/03/15 07:27:05;;;;;;;;;;;32.00;81.50;;;;;;5043357;28;20063;-68
2023/03/15 07:29:32;;;;;;;;;;;31.30;83.00;;;;;;5041247;28;19908;-68
2023/03/15 07:32:00;;;;;;;;;;;30.40;85.50;;;;;;5041545;28;19971;-70
2023/03/15 07:34:26;;;;;;;;;;;29.90;87.80;;;;;;5040341;28;19909;-68
2023/03/15 07:36:53;;;;;;;;;;;29.30;88.80;;;;;;5041014;28;19923;-68
2023/03/15 07:39:20;;;;;;;;;;;28.70;90.40;;;;;;5041049;28;19966;-69
2023/03/15 07:41:46;;;;;;;;;;;28.40;91.00;;;;;;5041352;28;19970;-69
2023/03/15 07:44:13;;;;;;;;;;;28.20;92.10;;;;;;5041210;28;19965;-68
2023/03/15 07:46:39;;;;;;;;;;;28.00;92.50;;;;;;5041172;28;19912;-69
2023/03/15 07:49:06;;;;;;;;;;;28.00;93.10;;;;;;5040042;28;19920;-68
2023/03/15 07:51:33;;;;;;;;;;;27.90;93.40;;;;;;5039097;28;20376;-74
2023/03/15 07:53:59;;;;;;;;;;;27.70;93.60;;;;;;5040225;28;19951;-67
2023/03/15 07:56:26;;;;;;;;;;;27.50;94.30;;;;;;5039503;28;20460;-68
2023/03/15 07:58:52;;;;;;;;;;;27.20;94.50;;;;;;5052939;28;19918;-68
2023/03/15 08:01:20;;;;;;;;;;;27.00;95.60;;;;;;5039644;28;20375;-68
2023/03/15 08:03:49;;;;;;;;;;;27.00;96.00;;;;;;5040992;28;19908;-74
2023/03/15 08:06:16;;;;;;;;;;;26.80;96.70;;;;;;5039305;28;19919;-69
2023/03/15 08:08:43;;;;;;;;;;;26.60;97.20;;;;;;5040054;28;19916;-69
2023/03/15 08:11:09;;;;;;;;;;;26.50;97.20;;;;;;5040208;28;19964;-65
2023/03/15 08:13:36;;;;;;;;;;;26.40;98.20;;;;;;5040974;28;19913;-68
2023/03/15 08:16:03;;;;;;;;;;;26.30;98.60;;;;;;5040674;28;19927;-68
2023/03/15 08:18:30;;;;;;;;;;;26.30;98.80;;;;;;5038971;28;19913;-68
2023/03/15 08:20:58;;;;;;;;;;;26.30;99.20;;;;;;5039880;28;19919;-68
2023/03/15 08:23:24;;;;;;;;;;;26.20;99.40;;;;;;5038277;28;19913;-68
2023/03/15 08:25:51;;;;;;;;;;;26.10;99.70;;;;;;5038354;28;19999;-67
2023/03/15 08:28:17;;;;;;;;;;;26.10;99.90;;;;;;5038635;28;20362;-68
2023/03/15 08:30:44;;;;;;;;;;;26.00;99.90;;;;;;5019804;28;19913;-68
2023/03/15 08:33:11;;;;;;;;;;;26.00;99.90;;;;;;5022968;28;19913;-68
2023/03/15 08:35:38;;;;;;;;;;;25.90;99.90;;;;;;5041450;28;19986;-67
2023/03/15 08:38:04;;;;;;;;;;;25.80;99.90;;;;;;5044130;28;19916;-67
2023/03/15 08:40:31;;;;;;;;;;;25.80;99.90;;;;;;5043817;28;19932;-68
2023/03/15 08:42:59;;;;;;;;;;;25.80;99.90;;;;;;5045206;28;19908;-72
2023/03/15 08:45:26;;;;;;;;;;;25.80;99.90;;;;;;5043876;28;20417;-77
2023/03/15 08:47:59;;;;;;;;;;;25.70;99.90;;;;;;5044197;28;20388;-68
2023/03/15 08:50:26;;;;;;;;;;;25.70;99.90;;;;;;5043688;28;19917;-68
2023/03/15 08:52:53;;;;;;;;;;;25.60;99.90;;;;;;5043776;28;19913;-69
2023/03/15 08:55:20;;;;;;;;;;;25.50;99.90;;;;;;5043395;28;19916;-68
2023/03/15 08:57:46;;;;;;;;;;;25.50;99.90;;;;;;5044551;28;19916;-69
2023/03/15 09:00:19;;;;;;;;;;;25.40;99.90;;;;;;5044699;28;20312;-67
2023/03/15 09:02:50;;;;;;;;;;;25.40;99.90;;;;;;5043647;28;20572;-66
2023/03/15 09:05:17;;;;;;;;;;;25.30;99.90;;;;;;5033593;28;20369;-68
2023/03/15 09:07:44;;;;;;;;;;;25.30;99.90;;;;;;5075902;28;20508;-67
2023/03/15 09:10:13;;;;;;;;;;;25.20;99.90;;;;;;5042355;28;19936;-67
2023/03/15 09:12:44;;;;;;;;;;;25.20;99.90;;;;;;5041967;28;19909;-67
2023/03/15 09:15:11;;;;;;;;;;;25.10;99.90;;;;;;5043096;28;20519;-66
2023/03/15 09:17:38;;;;;;;;;;;25.00;99.90;;;;;;5043204;28;20669;-66
2023/03/15 09:20:11;;;;;;;;;;;25.00;99.90;;;;;;5044303;28;19919;-66
2023/03/15 09:22:37;;;;;;;;;;;25.00;99.90;;;;;;5042493;28;19913;-66
2023/03/15 09:25:04;;;;;;;;;;;24.90;99.90;;;;;;5043154;28;19920;-67
2023/03/15 09:27:31;;;;;;;;;;;24.90;99.90;;;;;;5042893;28;19913;-68
2023/03/15 09:29:57;;;;;;;;;;;24.90;99.90;;;;;;5043010;28;19967;-68
2023/03/15 09:32:24;;;;;;;;;;;24.90;99.90;;;;;;5042782;28;20225;-70
2023/03/15 09:34:51;;;;;;;;;;;24.80;99.90;;;;;;5039127;28;19916;-67
2023/03/15 09:37:19;;;;;;;;;;;24.80;99.90;;;;;;5043116;28;19963;-66
2023/03/15 09:39:46;;;;;;;;;;;24.70;99.90;;;;;;5042305;28;19921;-67
2023/03/15 09:42:38;;;;;;;;;;;24.60;99.90;;;;;;5042096;28;19917;-67
2023/03/15 09:45:20;;;;;;;;;;;24.60;99.90;;;;;;5039835;28;19924;-67
2023/03/15 09:48:25;;;;;;;;;;;24.60;99.90;;;;;;5038641;28;19913;-67
2023/03/15 09:51:14;;;;;;;;;;;24.60;99.90;;;;;;4989064;28;19957;-67
2023/03/15 09:53:41;;;;;;;;;;;24.50;99.90;;;;;;4971842;28;19913;-67
2023/03/15 09:56:28;;;;;;;;;;;24.40;99.90;;;;;;5027266;28;20016;-66
2023/03/15 09:58:57;;;;;;;;;;;24.40;99.90;;;;;;5040360;28;19951;-67
2023/03/15 10:01:28;;;;;;;;;;;24.40;99.90;;;;;;5042291;28;19909;-70
2023/03/15 10:03:55;;;;;;;;;;;24.30;99.90;;;;;;5038984;28;19913;-66
2023/03/15 10:06:26;;;;;;;;;;;24.30;99.90;;;;;;5041408;28;19915;-69
2023/03/15 10:08:55;;;;;;;;;;;24.30;99.90;;;;;;5041545;28;19917;-65
2023/03/15 10:11:34;;;;;;;;;;;24.30;99.90;;;;;;5041412;28;19912;-67
2023/03/15 10:14:04;;;;;;;;;;;24.20;99.90;;;;;;5039517;28;19959;-65
2023/03/15 10:16:40;;;;;;;;;;;24.20;99.90;;;;;;5040759;28;19956;-67
2023/03/15 10:19:06;;;;;;;;;;;24.20;99.90;;;;;;5041357;28;20024;-67
2023/03/15 10:21:38;;;;;;;;;;;24.10;99.90;;;;;;5041321;28;19909;-70
2023/03/15 10:24:07;;;;;;;;;;;24.10;99.90;;;;;;5038349;28;19955;-68
2023/03/15 10:26:36;;;;;;;;;;;24.00;99.90;;;;;;5040124;28;19959;-77
2023/03/15 10:29:08;;;;;;;;;;;24.10;99.90;;;;;;5038622;28;19966;-67
2023/03/15 10:31:38;;;;;;;;;;;24.10;99.90;;;;;;5041659;28;19916;-67
2023/03/15 10:34:04;;;;;;;;;;;24.10;99.90;;;;;;5038761;28;19915;-71
2023/03/15 10:36:31;;;;;;;;;;;24.00;99.90;;;;;;5039936;28;20407;-68
2023/03/15 10:38:57;;;;;;;;;;;23.90;99.90;;;;;;5041501;28;20003;-76
2023/03/15 10:41:29;;;;;;;;;;;23.90;99.90;;;;;;5041461;28;19947;-69
2023/03/15 10:43:58;;;;;;;;;;;23.90;99.90;;;;;;5039087;28;19913;-68
2023/03/15 10:46:24;;;;;;;;;;;23.90;99.90;;;;;;5040258;28;19920;-68
2023/03/15 10:48:52;;;;;;;;;;;23.90;99.90;;;;;;5038504;28;19909;-69
2023/03/15 10:51:20;;;;;;;;;;;23.80;99.90;;;;;;5040720;28;20381;-68
2023/03/15 10:54:01;;;;;;;;;;;23.80;99.90;;;;;;5039119;28;20365;-69
2023/03/15 10:56:30;;;;;;;;;;;23.80;99.90;;;;;;5039306;28;19927;-73
2023/03/15 10:58:57;;;;;;;;;;;23.70;99.90;;;;;;5039359;28;19963;-67
2023/03/15 11:01:34;;;;;;;;;;;23.70;99.90;;;;;;5040815;28;19966;-69
2023/03/15 11:04:06;;;;;;;;;;;23.60;99.90;;;;;;5040247;28;20015;-67
2023/03/15 11:06:39;;;;;;;;;;;23.70;99.90;;;;;;5039454;28;19916;-67
2023/03/15 11:09:22;;;;;;;;;;;23.60;99.90;;;;;;5041538;28;19909;-68
2023/03/15 11:12:05;;;;;;;;;;;23.60;99.90;;;;;;5040322;28;20301;-68
2023/03/15 11:14:34;;;;;;;;;;;23.60;99.90;;;;;;5041769;28;20431;-68
2023/03/15 11:17:01;;;;;;;;;;;23.60;99.90;;;;;;5040475;28;20004;-66
2023/03/15 11:19:30;;;;;;;;;;;23.50;99.90;;;;;;5041843;28;19908;-68
2023/03/15 11:21:57;;;;;;;;;;;23.50;99.90;;;;;;5041102;28;19909;-69
2023/03/15 11:24:24;;;;;;;;;;;23.40;99.90;;;;;;5041970;28;19936;-67
2023/03/15 11:26:53;;;;;;;;;;;23.40;99.90;;;;;;5040607;28;19912;-68
2023/03/15 11:29:25;;;;;;;;;;;23.40;99.90;;;;;;5041572;28;20011;-66
2023/03/15 11:31:52;;;;;;;;;;;23.40;99.90;;;;;;5040651;28;19916;-65
2023/03/15 11:34:21;;;;;;;;;;;23.30;99.90;;;;;;5041414;28;19909;-68
2023/03/15 11:36:51;;;;;;;;;;;23.30;99.90;;;;;;5040169;28;19917;-66
2023/03/15 11:39:23;;;;;;;;;;;23.20;99.90;;;;;;5041123;28;19939;-67
2023/03/15 11:41:52;;;;;;;;;;;23.20;99.90;;;;;;5040357;28;19952;-67
2023/03/15 11:44:24;;;;;;;;;;;23.20;99.90;;;;;;5041579;28;19928;-66
2023/03/15 11:46:58;;;;;;;;;;;23.20;99.90;;;;;;5040607;28;19916;-66
2023/03/15 11:49:31;;;;;;;;;;;23.20;99.90;;;;;;5041518;28;19915;-68
2023/03/15 11:51:58;;;;;;;;;;;23.10;99.90;;;;;;5040246;28;19913;-69
2023/03/15 11:54:28;;;;;;;;;;;23.10;99.90;;;;;;5056237;28;20631;-67
2023/03/15 11:57:17;;;;;;;;;;;23.10;99.90;;;;;;5040529;28;19963;-67
2023/03/15 11:59:44;;;;;;;;;;;23.10;99.90;;;;;;5039948;28;19916;-67
2023/03/15 12:02:14;;;;;;;;;;;23.00;99.90;;;;;;5040637;28;19939;-67
2023/03/15 12:04:48;;;;;;;;;;;23.00;99.90;;;;;;5040544;28;19921;-67
2023/03/15 12:07:14;;;;;;;;;;;23.00;99.90;;;;;;5041031;28;20273;-68
2023/03/15 12:10:01;;;;;;;;;;;23.00;99.90;;;;;;5039755;28;20044;-66
2023/03/15 12:12:27;;;;;;;;;;;23.00;99.90;;;;;;5039703;28;20519;-66
2023/03/15 12:15:26;;;;;;;;;;;22.90;99.90;;;;;;5040276;28;19908;-67
2023/03/15 12:17:57;;;;;;;;;;;22.90;99.90;;;;;;5040439;28;19917;-67
2023/03/15 12:20:32;;;;;;;;;;;22.90;99.90;;;;;;5040792;28;20432;-68
2023/03/15 12:23:25;;;;;;;;;;;22.80;99.90;;;;;;5039454;28;20004;-67
2023/03/15 12:26:18;;;;;;;;;;;22.90;99.90;;;;;;5040233;28;19909;-68
2023/03/15 12:29:10;;;;;;;;;;;22.80;99.90;;;;;;5040365;28;19992;-66
2023/03/15 12:31:54;;;;;;;;;;;22.80;99.90;;;;;;5040422;28;19999;-68
2023/03/15 12:34:39;;;;;;;;;;;22.70;99.90;;;;;;5041006;28;19924;-67
2023/03/15 12:37:13;;;;;;;;;;;22.70;99.90;;;;;;5040033;28;20305;-67
2023/03/15 12:39:42;;;;;;;;;;;22.70;99.90;;;;;;5041113;28;20369;-69
2023/03/15 12:42:12;;;;;;;;;;;22.70;99.90;;;;;;5040183;28;20277;-67
2023/03/15 12:44:41;;;;;;;;;;;22.70;99.90;;;;;;5041073;28;19944;-66
2023/03/15 12:47:09;;;;;;;;;;;22.70;99.90;;;;;;5038693;28;20254;-66
2023/03/15 12:49:43;;;;;;;;;;;22.60;99.90;;;;;;5041214;28;19916;-67
2023/03/15 12:52:12;;;;;;;;;;;22.60;99.90;;;;;;5039305;28;20369;-67
2023/03/15 12:54:48;;;;;;;;;;;22.60;99.90;;;;;;5040526;28;19909;-67
2023/03/15 12:57:20;;;;;;;;;;;22.60;99.90;;;;;;5039638;28;19976;-66
2023/03/15 12:59:46;;;;;;;;;;;22.50;99.90;;;;;;5040679;28;19915;-67
2023/03/15 13:02:36;;;;;;;;;;;22.50;99.90;;;;;;5039747;28;19909;-67
2023/03/15 13:05:03;;;;;;;;;;;22.50;99.90;;;;;;5038019;28;20111;-68
2023/03/15 13:07:34;;;;;;;;;;;22.50;99.90;;;;;;5040795;28;19913;-67
2023/03/15 13:10:06;;;;;;;;;;;22.50;99.90;;;;;;5039624;28;20000;-68
2023/03/15 13:12:56;;;;;;;;;;;22.40;99.90;;;;;;5040557;28;19920;-70
2023/03/15 13:15:26;;;;;;;;;;;22.30;99.90;;;;;;5041975;28;19913;-67
2023/03/15 13:18:00;;;;;;;;;;;22.40;99.90;;;;;;5040282;28;19916;-67
2023/03/15 13:20:41;;;;;;;;;;;22.30;99.90;;;;;;5042693;28;20019;-68
2023/03/15 13:23:17;;;;;;;;;;;22.30;99.90;;;;;;5042183;28;19913;-67
2023/03/15 13:25:43;;;;;;;;;;;22.30;99.90;;;;;;5044494;28;19916;-67
2023/03/15 13:28:24;;;;;;;;;;;22.20;99.90;;;;;;5043396;28;20135;-67
2023/03/15 13:30:52;;;;;;;;;;;22.20;99.90;;;;;;5043710;28;20011;-67
2023/03/15 13:33:22;;;;;;;;;;;22.20;99.90;;;;;;5042726;28;19920;-67
2023/03/15 13:36:02;;;;;;;;;;;22.20;99.90;;;;;;5044011;28;19916;-68
2023/03/15 13:38:32;;;;;;;;;;;22.20;99.90;;;;;;5043701;28;20354;-67
2023/03/15 13:41:02;;;;;;;;;;;22.20;99.90;;;;;;5043779;28;20369;-67
2023/03/15 13:43:30;;;;;;;;;;;22.20;99.90;;;;;;5043079;28;19920;-67
2023/03/15 13:45:57;;;;;;;;;;;22.20;99.90;;;;;;5043544;28;19920;-66
2023/03/15 13:48:28;;;;;;;;;;;22.10;99.90;;;;;;5042863;28;19974;-67
2023/03/15 13:50:57;;;;;;;;;;;22.10;99.90;;;;;;5043682;28;19909;-67
2023/03/15 13:53:25;;;;;;;;;;;22.10;99.90;;;;;;5042642;28;19920;-66
2023/03/15 13:55:53;;;;;;;;;;;22.10;99.90;;;;;;5044201;28;20510;-68
2023/03/15 13:58:22;;;;;;;;;;;22.10;99.90;;;;;;5043477;28;19916;-67
2023/03/15 14:00:54;;;;;;;;;;;22.10;99.90;;;;;;5043898;28;19917;-66
2023/03/15 14:03:22;;;;;;;;;;;22.10;99.90;;;;;;5042374;28;19963;-67
2023/03/15 14:05:53;;;;;;;;;;;22.00;99.90;;;;;;5044015;28;19912;-67
2023/03/15 14:08:23;;;;;;;;;;;22.10;99.90;;;;;;5042905;28;19909;-68
2023/03/15 14:11:04;;;;;;;;;;;22.00;99.90;;;;;;5043828;28;20387;-67
2023/03/15 14:13:32;;;;;;;;;;;22.00;99.90;;;;;;5042805;28;19913;-68
2023/03/15 14:16:00;;;;;;;;;;;21.90;99.90;;;;;;5042941;28;20270;-67
2023/03/15 14:18:31;;;;;;;;;;;22.00;99.90;;;;;;5042578;28;19912;-68
2023/03/15 14:21:17;;;;;;;;;;;21.90;99.90;;;;;;5042913;28;19966;-67
2023/03/15 14:23:45;;;;;;;;;;;21.90;99.90;;;;;;5042420;28;20432;-68
2023/03/15 14:26:18;;;;;;;;;;;21.90;99.90;;;;;;5042652;28;20104;-67
2023/03/15 14:28:49;;;;;;;;;;;21.90;99.90;;;;;;5042835;28;19916;-67